ADDS METAR Data INFO
IDs: Format: Raw Decoded Include TAF

Data at: 0839 UTC 21 Oct 2017

KEHC 210835Z AUTO 13017KT 9SM FEW016 SCT095 29/25 A2994 RMK A01
KEHC 210815Z AUTO 13020KT 9SM BKN090 29/24 A2995 RMK A01
KEHC 210755Z AUTO 13019KT 8SM CLR 29/25 A2995 RMK A01
KEHC 210735Z AUTO 13020KT 9SM CLR 29/25 A2996 RMK A01
KEHC 210715Z AUTO 13020KT 9SM CLR 29/25 A2996 RMK A01
KEHC 210655Z AUTO 12019KT 8SM CLR 29/25 A2996 RMK A01
KEHC 210635Z AUTO 12021KT 8SM FEW025 FEW035 29/24 A2996 RMK A01
KEHC 210615Z AUTO 13020KT 8SM CLR 29/25 A2996 RMK A01
KEHC 210555Z AUTO 12019KT 8SM FEW021 FEW025 FEW033 29/24 A2995 RMK A01
KEHC 210535Z AUTO 13019KT 9SM FEW024 FEW033 29/24 A2996 RMK A01
KEHC 210515Z AUTO 13021KT 7SM CLR 29/24 A2996 RMK A01
KEHC 210455Z AUTO 12020KT 7SM CLR 28/25 A2995 RMK A01
KEHC 210435Z AUTO 12022KT 7SM CLR 28/25 A2996 RMK A01
KEHC 210415Z AUTO 11021G26KT 8SM FEW038 FEW060 FEW120 28/25 A2996 RMK A01
KEHC 210355Z AUTO 12022KT FEW020 FEW024 SCT036 28/25 A2997 RMK A01
KEHC 210335Z AUTO 11021KT 2 1/2SM HZ SCT022 BKN034 BKN046 28/25 A2997 RMK A01
KEHC 210315Z AUTO 12019KT 3SM HZ FEW024 SCT047 BKN060 28/25 A2999 RMK A01
KEHC 210255Z AUTO 11021KT 4SM HZ FEW028 SCT040 BKN047 28/25 A2998 RMK A01
KEHC 210235Z AUTO 11017KT 1 3/4SM HZ SCT023 BKN044 OVC055 27/25 A2999 RMK A01
KEHC 210215Z AUTO 10016KT 7SM SCT023 SCT037 BKN065 28/25 A3000 RMK A01
KEHC 210155Z AUTO 10018KT 4SM HZ FEW039 SCT055 SCT080 28/24 A2999 RMK A01
KEHC 210135Z AUTO 10021KT 9SM FEW024 FEW042 SCT060 28/24 A2997 RMK A01
KEHC 210115Z AUTO 11019KT 7SM FEW023 SCT042 BKN070 28/24 A2998 RMK A01
KEHC 210055Z AUTO 11019KT 8SM FEW025 SCT043 BKN075 28/24 A2998 RMK A01
KEHC 210035Z AUTO 11016KT 3SM HZ FEW036 SCT046 BKN060 28/24 A2998 RMK A01
KEHC 210015Z AUTO 11014KT 10SM OVC070 28/23 A2998 RMK A01
KEHC 202355Z AUTO 13015KT 9SM FEW028 FEW036 BKN070 28/23 A2999 RMK A01
KEHC 202335Z AUTO 13016KT 9SM FEW028 FEW075 FEW110 28/23 A2998 RMK A01
KEHC 202315Z AUTO 11017KT 2 1/2SM HZ FEW048 FEW060 FEW070 28/23 A2996 RMK A01
KEHC 202255Z AUTO 13015KT 8SM SCT024 SCT028 SCT049 28/23 A2998 RMK A01
KEHC 202235Z AUTO 13014KT 5SM HZ SCT024 SCT035 28/24 A2998 RMK A01
KEHC 202215Z AUTO 13018KT 4SM HZ SCT026 SCT035 SCT042 28/24 A2998 RMK A01
KEHC 202155Z AUTO 13016KT 1 3/4SM HZ SCT024 SCT042 SCT120 28/24 A2998 RMK A01
KEHC 202135Z AUTO 12021KT 9SM CLR 28/23 A2995 RMK A01
KEHC 202115Z AUTO 12020KT 8SM CLR 28/23 A2996 RMK A01
KEHC 202055Z AUTO 13019KT FEW025 29/23 A2997 RMK A01
KEHC 202035Z AUTO 12020KT 7SM SCT025 29/23 A2997 RMK A01
KEHC 202015Z AUTO 12020KT 7SM SCT025 28/23 A2997 RMK A01
KEHC 201955Z AUTO 12022KT 7SM FEW023 FEW043 28/23 A2997 RMK A01